O Neals, California
Current Conditions -  °F | °C
As of 2:53 PM on Saturday 20 Dec 2014 (Local Time) from KFAT Reporting Station
Overcast Overcast  
Wind Chill: 61°   Ceiling: 10000
Heat Index: 61°   Visibility: 10mi
Dew Point: 49°   Wind: 10mph
Humidity: 64%   Direction: 280°W
Pressure: 30.21"   Gusts: NA
Location:  37.1445°N, 119.651°W
Report Text: KFAT 202253Z 28009KT 10SM FEW075 OVC100 16/09 A3021 RMK AO2 SLP227 T01610094
Loading
Personal Weather Stations






























Interactive Weather Map New forecast layout! Learn more

10-Day Weather Forecast

Advertisements
Track Severe Weather on mobile